Time;durP1;ratioP1;P1;durP2;ratioP2;P2;SDS_P1;SDS_P2;PMS_P1;PMS_P2;Temp;Humidity;BMP_temperature;BMP_pressure;BME280_temperature;BME280_humidity;BME280_pressure;Samples;Min_cycle;Max_cycle;Signal;HPM_P1;HPM_P2
2022/09/04 00:01:16;;;;;;;0.52;0.52;;;24.60;61.80;;;;;;5006076;28;20065;-21
2022/09/04 00:03:57;;;;;;;0.30;0.30;;;24.60;61.70;;;;;;5052582;28;20050;-23
2022/09/04 00:06:27;;;;;;;0.60;0.40;;;24.60;61.50;;;;;;4978690;28;20101;-21
2022/09/04 00:08:59;;;;;;;0.77;0.50;;;24.60;61.50;;;;;;4984440;28;20054;-20
2022/09/04 00:11:43;;;;;;;0.40;0.40;;;24.60;61.50;;;;;;4970189;28;20054;-20
2022/09/04 00:14:41;;;;;;;0.30;0.30;;;24.60;61.60;;;;;;4968967;28;20051;-22
2022/09/04 00:17:49;;;;;;;0.43;0.43;;;24.60;61.60;;;;;;4959948;28;20066;-21
2022/09/04 00:20:25;;;;;;;0.43;0.43;;;24.60;61.50;;;;;;4968637;28;20500;-22
2022/09/04 00:22:54;;;;;;;0.40;0.40;;;24.60;61.60;;;;;;4969583;28;20151;-22
2022/09/04 00:25:43;;;;;;;0.40;0.40;;;24.60;61.50;;;;;;4966344;28;20047;-23
2022/09/04 00:28:18;;;;;;;0.45;0.40;;;24.60;61.50;;;;;;4968090;28;20057;-23
2022/09/04 00:30:49;;;;;;;0.30;0.30;;;24.60;61.70;;;;;;4988612;28;20485;-20
2022/09/04 00:33:19;;;;;;;0.45;0.40;;;24.60;61.70;;;;;;4974760;28;20060;-20
2022/09/04 00:35:54;;;;;;;0.40;0.40;;;24.60;61.70;;;;;;4960441;28;20345;-21
2022/09/04 00:38:47;;;;;;;0.30;0.30;;;24.60;61.70;;;;;;5008172;28;20534;-20
2022/09/04 00:41:16;;;;;;;0.40;0.40;;;24.60;61.60;;;;;;4966933;28;20608;-21
2022/09/04 00:44:00;;;;;;;0.50;0.50;;;24.50;61.70;;;;;;4968106;28;20070;-23
2022/09/04 00:46:38;;;;;;;0.40;0.40;;;24.60;61.70;;;;;;4964820;28;20042;-20
2022/09/04 00:49:15;;;;;;;0.40;0.40;;;24.50;61.70;;;;;;4968177;28;20156;-20
2022/09/04 00:52:06;;;;;;;0.40;0.40;;;24.50;61.70;;;;;;4983724;28;20432;-20
2022/09/04 00:54:47;;;;;;;0.55;0.55;;;24.60;61.60;;;;;;4983926;28;20600;-20
2022/09/04 00:57:32;;;;;;;0.80;0.50;;;24.60;61.70;;;;;;4979784;28;20050;-20
2022/09/04 01:00:01;;;;;;;0.82;0.40;;;24.60;61.60;;;;;;4968321;28;20050;-22
2022/09/04 01:02:45;;;;;;;0.32;0.32;;;24.60;61.60;;;;;;4983353;28;20054;-20
2022/09/04 01:05:19;;;;;;;0.47;0.47;;;24.50;61.70;;;;;;4967831;28;20472;-20
2022/09/04 01:07:44;;;;;;;0.40;0.40;;;24.50;61.60;;;;;;4978987;28;20754;-20
2022/09/04 01:10:22;;;;;;;0.30;0.30;;;24.60;61.60;;;;;;4968735;28;20169;-21
2022/09/04 01:12:57;;;;;;;0.40;0.40;;;24.50;61.70;;;;;;5000403;28;20610;-21
2022/09/04 01:15:33;;;;;;;0.40;0.40;;;24.50;61.60;;;;;;4965839;28;20086;-21
2022/09/04 01:18:01;;;;;;;0.30;0.30;;;24.50;61.70;;;;;;4986384;28;20126;-22
2022/09/04 01:20:46;;;;;;;0.50;0.50;;;24.50;61.70;;;;;;4969423;28;20127;-20
2022/09/04 01:23:36;;;;;;;0.30;0.30;;;24.50;61.60;;;;;;4985637;28;20058;-20
2022/09/04 01:26:14;;;;;;;0.40;0.40;;;24.50;61.70;;;;;;4960810;28;20176;-24
2022/09/04 01:28:43;;;;;;;0.40;0.40;;;24.50;61.60;;;;;;4997351;28;20050;-20
2022/09/04 01:31:35;;;;;;;0.40;0.30;;;24.50;61.70;;;;;;4968269;28;20054;-20
2022/09/04 01:34:58;;;;;;;0.30;0.30;;;24.50;61.60;;;;;;5015741;28;20063;-24
2022/09/04 01:37:34;;;;;;;0.35;0.35;;;24.50;61.70;;;;;;4896708;29;20203;-22
2022/09/04 01:40:07;;;;;;;0.52;0.40;;;24.50;61.70;;;;;;4897668;29;20048;-20
2022/09/04 01:42:59;;;;;;;0.52;0.50;;;24.50;61.60;;;;;;4903438;29;20098;-23
2022/09/04 01:45:48;;;;;;;0.40;0.40;;;24.50;61.70;;;;;;4877473;29;20864;-20
2022/09/04 01:48:16;;;;;;;0.30;0.30;;;24.50;61.70;;;;;;4903264;29;20585;-20
2022/09/04 01:50:43;;;;;;;0.82;0.50;;;24.50;61.70;;;;;;4903942;28;20043;-20
2022/09/04 01:53:16;;;;;;;0.28;0.28;;;24.50;61.70;;;;;;4887739;29;20514;-24
2022/09/04 01:55:54;;;;;;;0.35;0.35;;;24.50;61.70;;;;;;4895705;29;20051;-20
2022/09/04 01:58:53;;;;;;;0.30;0.30;;;24.50;61.70;;;;;;4902721;29;20044;-22
2022/09/04 02:01:37;;;;;;;0.35;0.35;;;24.50;61.70;;;;;;4874566;29;20706;-20
2022/09/04 02:04:21;;;;;;;0.40;0.40;;;24.40;61.80;;;;;;4896578;29;20568;-20
2022/09/04 02:07:13;;;;;;;0.40;0.40;;;24.40;61.80;;;;;;4876148;28;20550;-22
2022/09/04 02:09:45;;;;;;;0.40;0.40;;;24.40;61.70;;;;;;5005413;28;22440;-20
2022/09/04 02:12:36;;;;;;;0.30;0.30;;;24.50;61.70;;;;;;4972206;28;20050;-20
2022/09/04 02:15:18;;;;;;;0.40;0.40;;;24.40;61.90;;;;;;4985887;28;20057;-21
2022/09/04 02:17:57;;;;;;;0.30;0.30;;;24.40;61.90;;;;;;4981174;28;20041;-23
2022/09/04 02:20:27;;;;;;;0.50;0.38;;;24.40;61.90;;;;;;4988132;28;20104;-21
2022/09/04 02:23:04;;;;;;;0.30;0.30;;;24.40;61.80;;;;;;4987048;28;20053;-23
2022/09/04 02:25:52;;;;;;;0.40;0.40;;;24.40;61.90;;;;;;4979601;28;20054;-26
2022/09/04 02:29:02;;;;;;;0.32;0.32;;;24.40;61.70;;;;;;4984572;28;20432;-20
2022/09/04 02:31:42;;;;;;;0.30;0.30;;;24.40;61.90;;;;;;4945240;28;20455;-20
2022/09/04 02:34:15;;;;;;;0.30;0.30;;;24.40;61.80;;;;;;4946316;28;20607;-20
2022/09/04 02:36:41;;;;;;;0.50;0.30;;;24.40;61.90;;;;;;4942048;28;20062;-24
2022/09/04 02:39:27;;;;;;;0.40;0.40;;;24.40;61.90;;;;;;4947366;28;20047;-23
2022/09/04 02:42:20;;;;;;;0.30;0.30;;;24.40;62.00;;;;;;4945879;28;20734;-22
2022/09/04 02:44:54;;;;;;;0.38;0.25;;;24.40;62.10;;;;;;4945556;28;20054;-20
2022/09/04 02:47:44;;;;;;;0.43;0.40;;;24.40;62.10;;;;;;4930690;28;20051;-26
2022/09/04 02:50:20;;;;;;;0.50;0.45;;;24.40;61.90;;;;;;4947733;28;20713;-20
2022/09/04 02:53:17;;;;;;;0.40;0.40;;;24.40;61.90;;;;;;4931296;28;20054;-20
2022/09/04 02:56:12;;;;;;;0.30;0.30;;;24.40;62.00;;;;;;4928075;28;20062;-20
2022/09/04 02:58:56;;;;;;;0.25;0.25;;;24.40;61.90;;;;;;4933054;28;20142;-20
2022/09/04 03:01:51;;;;;;;0.30;0.30;;;24.40;62.00;;;;;;4935926;28;20174;-28
2022/09/04 03:04:23;;;;;;;0.30;0.30;;;24.40;62.00;;;;;;4968017;28;20060;-25
2022/09/04 03:06:56;;;;;;;0.40;0.40;;;24.40;62.10;;;;;;4964766;28;20553;-20
2022/09/04 03:09:35;;;;;;;0.40;0.40;;;24.40;62.00;;;;;;4984139;28;20031;-22
2022/09/04 03:12:25;;;;;;;0.40;0.40;;;24.40;61.90;;;;;;5003409;28;20597;-22
2022/09/04 03:15:06;;;;;;;0.20;0.20;;;24.40;62.10;;;;;;4971601;28;20596;-20
2022/09/04 03:17:40;;;;;;;0.30;0.30;;;24.40;62.10;;;;;;4990803;28;21234;-20
2022/09/04 03:20:20;;;;;;;1.45;0.40;;;24.40;62.10;;;;;;4987903;28;20057;-20
2022/09/04 03:22:56;;;;;;;0.40;0.40;;;24.40;61.90;;;;;;4984418;28;20072;-20
2022/09/04 03:25:52;;;;;;;0.30;0.30;;;24.40;62.00;;;;;;4982814;28;20098;-20
2022/09/04 03:28:33;;;;;;;0.40;0.40;;;24.40;61.90;;;;;;4984665;28;20514;-22
2022/09/04 03:31:03;;;;;;;0.40;0.40;;;24.40;61.90;;;;;;4969968;28;20076;-21
2022/09/04 03:33:37;;;;;;;0.40;0.40;;;24.40;62.00;;;;;;5005825;28;20138;-20
2022/09/04 03:36:12;;;;;;;0.40;0.40;;;24.40;61.90;;;;;;4961965;28;20096;-23
2022/09/04 03:38:41;;;;;;;0.30;0.30;;;24.40;62.00;;;;;;4960192;28;20683;-20
2022/09/04 03:41:28;;;;;;;0.40;0.40;;;24.40;61.90;;;;;;4971232;28;20084;-26
2022/09/04 03:44:17;;;;;;;0.30;0.30;;;24.40;62.10;;;;;;4969729;28;20512;-23
2022/09/04 03:47:17;;;;;;;0.60;0.40;;;24.40;61.90;;;;;;4982042;28;20056;-22
2022/09/04 03:49:53;;;;;;;0.22;0.20;;;24.40;62.10;;;;;;4983950;28;20126;-23
2022/09/04 03:52:36;;;;;;;0.43;0.30;;;24.40;62.10;;;;;;4983982;28;20053;-20
2022/09/04 03:55:29;;;;;;;0.38;0.38;;;24.40;62.10;;;;;;5001640;28;20131;-20
2022/09/04 03:58:00;;;;;;;0.30;0.22;;;24.40;62.10;;;;;;4966723;28;20928;-20
2022/09/04 04:00:26;;;;;;;0.30;0.30;;;24.40;62.10;;;;;;4965770;28;20538;-20
2022/09/04 04:03:25;;;;;;;0.40;0.40;;;24.40;62.10;;;;;;4985009;28;20054;-20
2022/09/04 04:06:28;;;;;;;0.40;0.40;;;24.40;62.10;;;;;;4982418;28;20224;-21
2022/09/04 04:08:55;;;;;;;0.30;0.30;;;24.40;62.20;;;;;;4968871;28;20148;-21
2022/09/04 04:11:45;;;;;;;0.40;0.40;;;24.40;62.20;;;;;;4970730;28;20649;-20
2022/09/04 04:14:36;;;;;;;0.30;0.30;;;24.30;62.10;;;;;;4968822;28;20050;-23
2022/09/04 04:17:16;;;;;;;0.30;0.30;;;24.30;62.10;;;;;;4970812;28;20058;-20
2022/09/04 04:19:45;;;;;;;0.30;0.30;;;24.30;62.20;;;;;;4968532;28;20046;-20
2022/09/04 04:22:39;;;;;;;0.30;0.30;;;24.30;62.10;;;;;;4969811;28;20076;-21
2022/09/04 04:25:04;;;;;;;0.30;0.30;;;24.30;62.10;;;;;;4968243;28;20460;-20
2022/09/04 04:27:51;;;;;;;0.77;0.40;;;24.40;62.10;;;;;;4966867;28;20432;-21
2022/09/04 04:30:17;;;;;;;0.40;0.40;;;24.30;62.00;;;;;;4968167;28;20517;-20
2022/09/04 04:33:07;;;;;;;0.30;0.30;;;24.30;62.00;;;;;;4968771;28;20046;-20
2022/09/04 04:35:51;;;;;;;0.30;0.30;;;24.30;62.20;;;;;;5006153;28;20054;-25
2022/09/04 04:38:19;;;;;;;;;;;24.30;62.10;;;;;;4968484;28;20511;-23
2022/09/04 04:41:19;;;;;;;0.35;0.35;;;24.30;62.10;;;;;;4968867;28;19925;-22
2022/09/04 04:43:57;;;;;;;0.32;0.30;;;24.30;62.10;;;;;;5002273;28;20057;-23
2022/09/04 04:47:06;;;;;;;0.40;0.40;;;24.30;62.10;;;;;;4967602;28;20674;-20
2022/09/04 04:49:44;;;;;;;0.30;0.30;;;24.30;62.10;;;;;;5006725;28;20143;-20
2022/09/04 04:52:43;;;;;;;0.35;0.35;;;24.30;62.10;;;;;;4969392;28;20052;-20
2022/09/04 04:55:33;;;;;;;0.40;0.30;;;24.30;62.10;;;;;;4971789;28;21040;-23
2022/09/04 04:57:59;;;;;;;0.40;0.40;;;24.30;62.30;;;;;;4982331;28;20050;-23
2022/09/04 05:00:39;;;;;;;0.40;0.40;;;24.30;62.30;;;;;;4967535;28;20061;-20
2022/09/04 05:03:26;;;;;;;0.40;0.40;;;24.30;62.10;;;;;;4980979;28;20050;-24
2022/09/04 05:06:08;;;;;;;0.40;0.40;;;24.30;62.20;;;;;;4998252;28;20180;-21
2022/09/04 05:08:54;;;;;;;0.30;0.30;;;24.30;62.20;;;;;;4981969;28;20050;-19
2022/09/04 05:11:45;;;;;;;0.30;0.30;;;24.30;62.10;;;;;;4971805;28;20726;-21
2022/09/04 05:14:19;;;;;;;0.40;0.40;;;24.30;62.30;;;;;;4971414;28;20042;-24
2022/09/04 05:16:56;;;;;;;0.40;0.40;;;24.30;62.20;;;;;;4968464;28;20959;-21
2022/09/04 05:20:16;;;;;;;1.05;0.40;;;24.30;62.60;;;;;;4984900;28;20057;-20
2022/09/04 05:22:43;;;;;;;1.08;0.40;;;24.30;62.80;;;;;;5018006;28;20752;-20
2022/09/04 05:25:30;;;;;;;1.77;0.93;;;24.20;63.40;;;;;;5001961;28;20526;-21
2022/09/04 05:28:19;;;;;;;0.50;0.50;;;24.10;63.60;;;;;;5017721;28;20057;-22
2022/09/04 05:31:38;;;;;;;0.40;0.40;;;23.90;63.80;;;;;;5016666;28;20570;-20
2022/09/04 05:34:06;;;;;;;0.40;0.40;;;24.00;63.80;;;;;;4936890;28;20053;-21
2022/09/04 05:37:01;;;;;;;0.75;0.50;;;24.00;63.60;;;;;;4934135;28;20142;-21
2022/09/04 05:39:29;;;;;;;0.60;0.57;;;23.90;63.70;;;;;;4928287;28;20079;-20
2022/09/04 05:41:54;;;;;;;1.88;0.50;;;23.90;63.60;;;;;;4934321;28;20079;-20
2022/09/04 05:44:32;;;;;;;0.68;0.60;;;23.90;63.70;;;;;;4936366;28;20043;-21
2022/09/04 05:47:06;;;;;;;0.50;0.50;;;23.90;63.80;;;;;;4935011;28;20047;-23
2022/09/04 05:49:50;;;;;;;0.65;0.65;;;23.90;63.70;;;;;;4935438;28;20945;-22
2022/09/04 05:52:24;;;;;;;0.70;0.70;;;23.80;63.60;;;;;;4933506;28;20046;-22
2022/09/04 05:55:11;;;;;;;1.38;0.88;;;23.80;63.80;;;;;;4934947;28;20536;-21
2022/09/04 05:58:01;;;;;;;1.00;0.50;;;23.80;63.90;;;;;;4980437;28;20091;-20
2022/09/04 06:00:30;;;;;;;0.75;0.70;;;23.80;63.80;;;;;;4990922;28;20548;-23
2022/09/04 06:03:11;;;;;;;0.70;0.70;;;23.80;63.80;;;;;;4987932;28;20416;-22
2022/09/04 06:05:57;;;;;;;0.50;0.50;;;23.80;63.70;;;;;;4998733;28;20164;-20
2022/09/04 06:08:39;;;;;;;0.70;0.70;;;23.70;63.70;;;;;;4999007;28;20536;-22
2022/09/04 06:11:22;;;;;;;0.50;0.50;;;23.70;63.70;;;;;;4972622;28;20124;-22
2022/09/04 06:14:22;;;;;;;0.73;0.63;;;23.80;63.60;;;;;;4986182;28;20072;-20
2022/09/04 06:17:06;;;;;;;1.63;0.95;;;23.80;63.60;;;;;;4981288;28;20048;-20
2022/09/04 06:19:44;;;;;;;0.98;0.60;;;23.70;63.40;;;;;;4969700;28;20042;-29
2022/09/04 06:22:30;;;;;;;0.98;0.73;;;23.70;63.60;;;;;;4969551;28;20053;-20
2022/09/04 06:25:23;;;;;;;0.70;0.57;;;23.60;63.70;;;;;;4970566;28;20728;-20
2022/09/04 06:28:17;;;;;;;0.90;0.60;;;23.60;63.90;;;;;;4968599;28;20045;-23
2022/09/04 06:30:48;;;;;;;3.60;0.88;;;23.60;63.60;;;;;;4971795;28;20050;-23
2022/09/04 06:33:20;;;;;;;0.77;0.70;;;23.60;63.60;;;;;;4970810;28;20524;-22
2022/09/04 06:35:50;;;;;;;0.55;0.45;;;23.60;63.80;;;;;;4983797;28;20108;-24
2022/09/04 06:38:24;;;;;;;0.60;0.60;;;23.60;63.60;;;;;;4987398;28;20085;-23
2022/09/04 06:41:13;;;;;;;1.00;0.43;;;23.60;63.70;;;;;;4967529;28;20474;-20
2022/09/04 06:44:16;;;;;;;0.63;0.60;;;23.50;63.90;;;;;;4971422;28;20103;-20
2022/09/04 06:47:10;;;;;;;1.70;0.60;;;23.60;63.70;;;;;;4617490;28;10001679;-23
2022/09/04 06:49:57;;;;;;;0.60;0.43;;;23.60;63.50;;;;;;4933315;28;20048;-24
2022/09/04 06:52:39;;;;;;;1.48;0.82;;;23.50;64.00;;;;;;4967923;28;20085;-22
2022/09/04 06:55:32;;;;;;;0.70;0.70;;;23.40;64.30;;;;;;4977473;28;20054;-26
2022/09/04 06:58:18;;;;;;;0.75;0.75;;;23.40;64.40;;;;;;5005497;28;20149;-23
2022/09/04 07:01:29;;;;;;;0.77;0.70;;;23.40;64.20;;;;;;4964716;28;20520;-21
2022/09/04 07:03:58;;;;;;;1.30;1.20;;;23.50;63.70;;;;;;4929148;28;20965;-22
2022/09/04 07:07:08;;;;;;;0.75;0.75;;;23.50;63.70;;;;;;4896574;28;20351;-21
2022/09/04 07:09:38;;;;;;;2.47;0.90;;;23.50;63.40;;;;;;4895729;28;20086;-22
2022/09/04 07:12:13;;;;;;;0.75;0.60;;;23.50;63.40;;;;;;4913945;28;20167;-22
2022/09/04 07:14:59;;;;;;;0.70;0.70;;;23.40;63.20;;;;;;4900617;28;20059;-22
2022/09/04 07:18:12;;;;;;;1.20;0.90;;;23.40;63.50;;;;;;4913630;28;20064;-24
2022/09/04 07:21:05;;;;;;;1.05;1.05;;;23.30;63.50;;;;;;4905596;28;20098;-23
2022/09/04 07:23:49;;;;;;;1.92;0.90;;;23.40;64.50;;;;;;4902040;28;20056;-25
2022/09/04 07:26:27;;;;;;;;;;;23.70;63.00;;;;;;4900999;28;20141;-20
2022/09/04 07:28:55;;;;;;;1.10;1.00;;;27.30;56.70;;;;;;4898948;28;19946;-26
2022/09/04 07:31:23;;;;;;;1.98;1.00;;;29.80;51.30;;;;;;4899748;28;20427;-21
2022/09/04 07:34:10;;;;;;;1.98;1.20;;;31.30;48.30;;;;;;4886964;28;20057;-26
2022/09/04 07:36:42;;;;;;;2.50;1.08;;;32.00;46.50;;;;;;4885346;28;20047;-26
2022/09/04 07:39:25;;;;;;;1.15;1.10;;;32.10;45.50;;;;;;4895795;28;20129;-24
2022/09/04 07:42:22;;;;;;;1.30;0.90;;;32.30;45.70;;;;;;4910308;28;20047;-24
2022/09/04 07:44:53;;;;;;;0.68;0.68;;;30.00;47.60;;;;;;4896314;28;20109;-23
2022/09/04 07:47:25;;;;;;;1.23;1.00;;;28.00;51.70;;;;;;4898450;28;20734;-22
2022/09/04 07:50:10;;;;;;;1.48;0.93;;;26.90;54.10;;;;;;4919061;28;20547;-21
2022/09/04 07:52:44;;;;;;;1.60;1.15;;;26.00;56.00;;;;;;4900718;28;20051;-21
2022/09/04 07:55:40;;;;;;;1.10;0.88;;;25.50;57.40;;;;;;4920909;28;20070;-21
2022/09/04 07:58:18;;;;;;;1.40;1.00;;;25.10;58.20;;;;;;4985489;28;20354;-22
2022/09/04 08:01:18;;;;;;;2.53;0.88;;;24.70;59.20;;;;;;4965259;28;20103;-23
2022/09/04 08:03:43;;;;;;;0.98;0.70;;;24.60;59.60;;;;;;4965108;28;20049;-22
2022/09/04 08:06:32;;;;;;;0.90;0.80;;;24.40;60.10;;;;;;4963506;28;20069;-22
2022/09/04 08:09:26;;;;;;;1.60;0.98;;;24.40;60.30;;;;;;5034555;28;20099;-24
2022/09/04 08:11:58;;;;;;;1.15;0.70;;;24.30;60.90;;;;;;4979918;28;20046;-25
2022/09/04 08:14:36;;;;;;;0.88;0.75;;;24.30;61.10;;;;;;4967856;28;20087;-23
2022/09/04 08:17:24;;;;;;;1.30;0.70;;;24.30;61.20;;;;;;4963417;28;20800;-21
2022/09/04 08:20:01;;;;;;;0.95;0.60;;;24.30;61.30;;;;;;4965534;28;20078;-24
2022/09/04 08:23:05;;;;;;;1.63;0.80;;;24.30;61.70;;;;;;4997875;28;20062;-21
2022/09/04 08:25:50;;;;;;;0.80;0.55;;;24.30;61.70;;;;;;4959851;28;20128;-24
2022/09/04 08:28:40;;;;;;;0.90;0.68;;;24.30;61.90;;;;;;4963074;28;20656;-22
2022/09/04 08:31:16;;;;;;;1.17;0.73;;;24.30;62.10;;;;;;4962937;28;20103;-26
2022/09/04 08:34:07;;;;;;;0.95;0.88;;;24.20;62.30;;;;;;4967866;28;20054;-21
2022/09/04 08:36:54;;;;;;;1.55;0.80;;;24.20;62.30;;;;;;4962722;28;20054;-25
2022/09/04 08:39:39;;;;;;;1.65;0.70;;;24.20;62.60;;;;;;5002078;28;20107;-21
2022/09/04 08:43:02;;;;;;;1.15;0.70;;;24.10;62.40;;;;;;4980880;28;20053;-22
2022/09/04 08:45:35;;;;;;;1.92;0.80;;;24.10;62.40;;;;;;4941698;28;20034;-21
2022/09/04 08:48:20;;;;;;;1.13;0.65;;;24.00;62.70;;;;;;4927368;28;20597;-25
2022/09/04 08:51:16;;;;;;;1.75;0.90;;;24.10;62.40;;;;;;4931625;28;20070;-22
2022/09/04 08:54:07;;;;;;;1.25;0.70;;;24.20;62.10;;;;;;4926928;28;20085;-24
2022/09/04 08:57:01;;;;;;;1.20;0.80;;;24.30;61.70;;;;;;4925710;28;20034;-25
2022/09/04 09:00:12;;;;;;;0.77;0.70;;;24.30;61.90;;;;;;4937698;28;20485;-24
2022/09/04 09:03:14;;;;;;;0.85;0.77;;;24.30;62.10;;;;;;4946407;28;20046;-23
2022/09/04 09:06:33;;;;;;;0.68;0.60;;;24.30;61.80;;;;;;4936773;28;20111;-21
2022/09/04 09:09:02;;;;;;;1.02;0.93;;;24.20;62.20;;;;;;4965866;28;20133;-28
2022/09/04 09:11:49;;;;;;;0.45;0.45;;;24.20;62.30;;;;;;4967479;28;20143;-25
2022/09/04 09:14:52;;;;;;;0.98;0.50;;;24.30;61.70;;;;;;4966992;28;20084;-23
2022/09/04 09:17:40;;;;;;;0.70;0.70;;;24.40;61.40;;;;;;4981942;28;20604;-24
2022/09/04 09:20:28;;;;;;;0.65;0.60;;;24.30;61.50;;;;;;5002249;28;20057;-21
2022/09/04 09:23:12;;;;;;;0.95;0.68;;;24.30;61.90;;;;;;4987232;28;20474;-21
2022/09/04 09:26:14;;;;;;;2.10;0.90;;;24.20;62.30;;;;;;5001338;28;20037;-23
2022/09/04 09:29:18;;;;;;;1.73;0.80;;;24.20;62.20;;;;;;5003246;28;20514;-23
2022/09/04 09:32:06;;;;;;;0.77;0.60;;;24.20;62.30;;;;;;4988330;28;20467;-23
2022/09/04 09:35:17;;;;;;;0.52;0.52;;;24.30;62.30;;;;;;5001125;28;20385;-22
2022/09/04 09:38:02;;;;;;;0.60;0.57;;;24.30;62.20;;;;;;4925645;28;20047;-24
2022/09/04 09:40:59;;;;;;;0.85;0.52;;;24.20;62.40;;;;;;4925695;28;20489;-20
2022/09/04 09:43:42;;;;;;;0.65;0.55;;;24.20;62.50;;;;;;4895380;28;20056;-22
2022/09/04 09:46:45;;;;;;;0.80;0.55;;;24.20;62.50;;;;;;4886308;28;20052;-21
2022/09/04 09:49:49;;;;;;;0.47;0.47;;;24.20;62.70;;;;;;4867916;28;20521;-28
2022/09/04 09:52:43;;;;;;;1.35;0.55;;;24.20;62.40;;;;;;4896993;28;20055;-22
2022/09/04 09:55:37;;;;;;;1.05;0.70;;;24.20;62.50;;;;;;4894378;28;20040;-24
2022/09/04 09:58:18;;;;;;;0.60;0.60;;;24.30;62.50;;;;;;4894483;28;20138;-23
2022/09/04 10:00:57;;;;;;;0.70;0.60;;;24.30;62.30;;;;;;4878297;28;20087;-22
2022/09/04 10:03:38;;;;;;;0.50;0.40;;;24.30;62.40;;;;;;4875961;28;20523;-23
2022/09/04 10:06:22;;;;;;;0.68;0.50;;;24.40;62.20;;;;;;4870366;28;20040;-21
2022/09/04 10:09:13;;;;;;;0.52;0.47;;;24.40;62.10;;;;;;4880377;28;20048;-21
2022/09/04 10:11:53;;;;;;;1.05;0.60;;;24.50;61.60;;;;;;4920512;28;20043;-20
2022/09/04 10:14:31;;;;;;;0.52;0.52;;;24.60;61.30;;;;;;4969640;28;20349;-23
2022/09/04 10:17:02;;;;;;;0.30;0.30;;;24.70;61.20;;;;;;4964347;28;20141;-26
2022/09/04 10:19:41;;;;;;;0.70;0.55;;;24.70;61.10;;;;;;4983903;28;20046;-20
2022/09/04 10:22:16;;;;;;;1.92;0.60;;;24.60;61.20;;;;;;5007869;28;20077;-20
2022/09/04 10:24:53;;;;;;;1.33;0.60;;;24.70;61.30;;;;;;4970012;28;20138;-20
2022/09/04 10:27:38;;;;;;;0.63;0.63;;;24.60;61.20;;;;;;4976296;28;20038;-22
2022/09/04 10:30:15;;;;;;;0.60;0.60;;;24.60;61.60;;;;;;4969057;28;20496;-20
2022/09/04 10:33:03;;;;;;;0.50;0.50;;;24.70;61.60;;;;;;4984393;28;20039;-22
2022/09/04 10:35:42;;;;;;;0.93;0.70;;;24.70;61.20;;;;;;4965157;28;20058;-23
2022/09/04 10:38:20;;;;;;;0.98;0.63;;;24.70;61.30;;;;;;4981874;28;20046;-21
2022/09/04 10:41:26;;;;;;;0.77;0.70;;;24.60;61.30;;;;;;4968093;28;20470;-21
2022/09/04 10:43:51;;;;;;;0.65;0.65;;;24.70;61.50;;;;;;4978411;28;20054;-24
2022/09/04 10:46:28;;;;;;;0.50;0.50;;;24.60;61.40;;;;;;4962478;28;20567;-29
2022/09/04 10:49:24;;;;;;;1.75;0.43;;;24.70;61.30;;;;;;4968356;28;20513;-20
2022/09/04 10:51:59;;;;;;;0.60;0.60;;;24.70;61.40;;;;;;4965005;28;20141;-26
2022/09/04 10:54:55;;;;;;;0.77;0.77;;;24.60;61.40;;;;;;4965310;28;20063;-23
2022/09/04 10:57:44;;;;;;;0.77;0.50;;;24.60;61.30;;;;;;4967230;28;20054;-22
2022/09/04 11:00:12;;;;;;;0.70;0.63;;;24.70;61.30;;;;;;4966158;28;20046;-30
2022/09/04 11:03:14;;;;;;;1.52;0.90;;;24.60;61.30;;;;;;4985475;28;20720;-23
2022/09/04 11:06:24;;;;;;;0.70;0.60;;;24.60;61.30;;;;;;4975558;28;20054;-21
2022/09/04 11:09:16;;;;;;;1.33;0.88;;;24.60;61.30;;;;;;4960893;28;21239;-22
2022/09/04 11:12:03;;;;;;;0.60;0.60;;;24.70;61.30;;;;;;4982554;28;20054;-24
2022/09/04 11:14:55;;;;;;;0.47;0.47;;;24.60;61.20;;;;;;4967471;28;20054;-28
2022/09/04 11:17:51;;;;;;;0.75;0.65;;;24.70;61.10;;;;;;5000875;28;20064;-22
2022/09/04 11:20:16;;;;;;;0.82;0.80;;;24.60;61.00;;;;;;5003736;28;20741;-26
2022/09/04 11:22:49;;;;;;;0.70;0.57;;;24.70;61.00;;;;;;4968801;28;20065;-22
2022/09/04 11:25:46;;;;;;;0.63;0.63;;;24.70;61.10;;;;;;4964969;28;20043;-24
2022/09/04 11:28:33;;;;;;;0.50;0.50;;;24.70;61.00;;;;;;4966868;28;20083;-24
2022/09/04 11:31:13;;;;;;;0.68;0.60;;;24.70;60.90;;;;;;4965705;28;20137;-22
2022/09/04 11:33:54;;;;;;;1.65;0.52;;;24.70;60.90;;;;;;4981061;28;20421;-22
2022/09/04 11:36:57;;;;;;;1.08;0.70;;;24.70;60.80;;;;;;4965384;28;20817;-21
2022/09/04 11:39:29;;;;;;;1.77;0.70;;;24.70;60.70;;;;;;4621107;28;10000486;-22
2022/09/04 11:42:15;;;;;;;1.02;0.70;;;24.80;60.80;;;;;;4963184;28;20137;-27
2022/09/04 11:45:02;;;;;;;1.25;0.50;;;24.70;60.50;;;;;;4969688;28;20038;-22
2022/09/04 11:47:46;;;;;;;0.75;0.40;;;24.70;60.60;;;;;;4964011;28;20508;-22
2022/09/04 11:50:39;;;;;;;0.60;0.50;;;24.70;60.70;;;;;;4967668;28;20425;-22
2022/09/04 11:53:22;;;;;;;1.17;0.63;;;24.70;60.60;;;;;;4965364;28;20062;-22
2022/09/04 11:55:51;;;;;;;1.05;0.70;;;24.70;60.70;;;;;;4962380;28;20078;-20
2022/09/04 11:58:31;;;;;;;0.90;0.77;;;24.70;60.80;;;;;;4966756;28;20144;-26
2022/09/04 12:01:15;;;;;;;0.43;0.43;;;24.70;60.60;;;;;;4967145;28;20046;-20
2022/09/04 12:04:07;;;;;;;0.80;0.60;;;24.80;60.70;;;;;;4980327;28;20053;-24
2022/09/04 12:07:07;;;;;;;1.10;0.60;;;24.80;60.50;;;;;;4961230;28;20050;-21
2022/09/04 12:10:11;;;;;;;0.80;0.70;;;24.80;60.50;;;;;;4966629;28;20103;-21
2022/09/04 12:13:13;;;;;;;0.63;0.43;;;24.80;60.50;;;;;;4968144;28;20079;-20
2022/09/04 12:16:05;;;;;;;0.50;0.50;;;24.80;60.50;;;;;;4962935;28;20332;-22
2022/09/04 12:18:56;;;;;;;0.98;0.60;;;24.80;60.50;;;;;;4966200;28;20335;-25
2022/09/04 12:21:46;;;;;;;0.63;0.50;;;24.90;60.50;;;;;;4967043;28;20043;-21
2022/09/04 12:24:29;;;;;;;1.10;0.70;;;24.90;60.50;;;;;;4967168;28;20050;-22
2022/09/04 12:27:17;;;;;;;0.60;0.50;;;24.90;60.60;;;;;;4962138;28;20592;-21
2022/09/04 12:30:07;;;;;;;0.82;0.63;;;24.90;60.60;;;;;;4968089;28;20054;-21
2022/09/04 12:32:52;;;;;;;0.60;0.47;;;24.80;60.50;;;;;;4967322;28;20042;-23
2022/09/04 12:35:25;;;;;;;;;;;24.90;60.40;;;;;;4965906;28;20048;-21
2022/09/04 12:38:28;;;;;;;0.63;0.50;;;24.90;60.40;;;;;;4983191;28;19925;-23
2022/09/04 12:40:59;;;;;;;0.90;0.40;;;24.90;60.40;;;;;;4966486;28;20528;-28
2022/09/04 12:43:49;;;;;;;0.50;0.50;;;25.00;60.40;;;;;;4980865;28;20065;-21
2022/09/04 12:46:39;;;;;;;0.68;0.55;;;25.00;60.40;;;;;;4973873;28;20120;-22
2022/09/04 12:49:37;;;;;;;0.95;0.40;;;25.00;60.20;;;;;;4967045;28;20164;-33
2022/09/04 12:52:22;;;;;;;0.70;0.70;;;25.00;60.10;;;;;;4967551;28;20039;-22
2022/09/04 12:55:13;;;;;;;1.55;0.47;;;25.00;60.20;;;;;;4967333;28;20479;-22
2022/09/04 12:58:01;;;;;;;0.82;0.50;;;25.00;60.30;;;;;;4976616;28;20504;-25
2022/09/04 13:00:32;;;;;;;0.45;0.45;;;25.10;60.20;;;;;;4982439;28;20062;-20
2022/09/04 13:03:00;;;;;;;0.60;0.50;;;25.10;60.00;;;;;;4965756;28;20062;-22
2022/09/04 13:06:03;;;;;;;1.13;0.40;;;25.10;60.10;;;;;;4964236;28;20151;-21
2022/09/04 13:08:47;;;;;;;0.47;0.40;;;25.00;60.10;;;;;;4966041;28;20145;-28
2022/09/04 13:11:27;;;;;;;0.65;0.47;;;25.00;60.10;;;;;;4965570;28;20053;-20
2022/09/04 13:14:17;;;;;;;1.55;0.45;;;25.00;60.20;;;;;;4969176;28;20052;-24
2022/09/04 13:16:46;;;;;;;0.60;0.60;;;25.00;60.30;;;;;;4961691;28;20054;-20
2022/09/04 13:19:24;;;;;;;0.40;0.40;;;25.00;60.50;;;;;;4966494;28;20587;-21
2022/09/04 13:22:06;;;;;;;0.50;0.35;;;25.00;60.50;;;;;;4966518;28;21481;-21
2022/09/04 13:24:58;;;;;;;0.40;0.40;;;25.10;60.10;;;;;;4981027;28;20050;-29
2022/09/04 13:27:50;;;;;;;0.50;0.50;;;25.10;60.40;;;;;;4960489;28;20053;-21
2022/09/04 13:30:20;;;;;;;0.52;0.45;;;25.00;60.40;;;;;;5001840;28;20047;-20
2022/09/04 13:32:55;;;;;;;0.40;0.40;;;25.00;60.20;;;;;;4970208;28;20489;-23
2022/09/04 13:35:40;;;;;;;0.47;0.47;;;25.00;60.40;;;;;;4966846;28;20042;-21
2022/09/04 13:38:14;;;;;;;0.50;0.50;;;25.00;60.40;;;;;;4971124;28;20050;-20
2022/09/04 13:41:10;;;;;;;0.52;0.52;;;25.00;60.30;;;;;;4970374;28;20045;-26
2022/09/04 13:43:42;;;;;;;0.40;0.40;;;25.00;60.40;;;;;;4969880;28;20062;-22
2022/09/04 13:46:11;;;;;;;0.75;0.40;;;25.10;60.40;;;;;;4967115;28;20050;-22
2022/09/04 13:48:54;;;;;;;0.40;0.40;;;25.10;60.40;;;;;;5004918;28;20593;-20
2022/09/04 13:51:29;;;;;;;0.40;0.40;;;25.10;60.50;;;;;;4970405;28;20042;-22
2022/09/04 13:53:55;;;;;;;0.57;0.30;;;25.10;60.30;;;;;;4984664;28;20293;-20
2022/09/04 13:56:29;;;;;;;0.68;0.55;;;25.20;60.40;;;;;;4964931;28;20213;-26
2022/09/04 13:58:58;;;;;;;0.50;0.45;;;25.20;60.10;;;;;;4984701;28;20061;-25
2022/09/04 14:01:25;;;;;;;0.70;0.70;;;25.20;60.10;;;;;;4981950;28;20145;-22
2022/09/04 14:03:51;;;;;;;0.50;0.50;;;25.20;60.40;;;;;;4968426;28;20065;-21
2022/09/04 14:06:18;;;;;;;0.50;0.30;;;25.20;60.40;;;;;;4978319;28;20351;-20
2022/09/04 14:08:45;;;;;;;0.30;0.30;;;25.20;60.40;;;;;;4984362;28;20158;-20
2022/09/04 14:11:39;;;;;;;0.50;0.43;;;25.20;60.10;;;;;;4968692;28;20050;-21
2022/09/04 14:14:26;;;;;;;0.50;0.40;;;25.20;60.20;;;;;;4968919;28;20127;-21